Time;durP1;ratioP1;P1;durP2;ratioP2;P2;SDS_P1;SDS_P2;PMS_P1;PMS_P2;Temp;Humidity;BMP_temperature;BMP_pressure;BME280_temperature;BME280_humidity;BME280_pressure;Samples;Min_cycle;Max_cycle;Signal;HPM_P1;HPM_P2
2023/01/09 00:02:23;;;;;;;10.02;1.88;;;7.10;99.90;;;;;;5059371;28;20537;-54
2023/01/09 00:04:50;;;;;;;11.38;2.05;;;7.10;99.90;;;;;;5058219;28;20395;-57
2023/01/09 00:07:17;;;;;;;14.52;1.98;;;7.10;99.90;;;;;;5055653;28;20121;-55
2023/01/09 00:09:43;;;;;;;13.35;2.38;;;7.10;99.90;;;;;;5051914;28;20033;-55
2023/01/09 00:12:10;;;;;;;9.35;1.90;;;7.10;99.90;;;;;;5045288;28;20068;-52
2023/01/09 00:14:37;;;;;;;10.48;2.17;;;7.10;99.90;;;;;;5047063;28;20061;-54
2023/01/09 00:17:04;;;;;;;10.85;1.77;;;7.10;99.90;;;;;;5044897;28;20041;-53
2023/01/09 00:19:30;;;;;;;11.30;2.03;;;7.10;99.90;;;;;;5045053;28;20102;-56
2023/01/09 00:21:57;;;;;;;11.40;1.75;;;7.10;99.90;;;;;;5043759;28;20447;-54
2023/01/09 00:24:24;;;;;;;7.10;1.30;;;7.10;99.90;;;;;;5041865;28;20510;-53
2023/01/09 00:26:51;;;;;;;7.57;1.92;;;7.10;99.90;;;;;;5045921;28;20045;-56
2023/01/09 00:29:18;;;;;;;6.90;1.30;;;7.10;99.90;;;;;;5051102;28;20510;-55
2023/01/09 00:31:44;;;;;;;6.57;1.60;;;7.10;99.90;;;;;;5055912;28;20102;-53
2023/01/09 00:34:11;;;;;;;7.70;1.33;;;7.10;99.90;;;;;;5055515;28;20045;-53
2023/01/09 00:36:38;;;;;;;5.55;1.05;;;7.10;99.90;;;;;;5055683;28;20071;-53
2023/01/09 00:39:05;;;;;;;8.02;1.40;;;7.00;99.90;;;;;;5056151;28;20060;-49
2023/01/09 00:41:31;;;;;;;8.60;1.42;;;7.00;99.90;;;;;;5055973;28;20045;-52
2023/01/09 00:43:59;;;;;;;10.35;1.20;;;7.00;99.90;;;;;;5055526;28;20068;-51
2023/01/09 00:46:26;;;;;;;6.80;1.17;;;7.00;99.90;;;;;;5054304;28;20079;-52
2023/01/09 00:48:53;;;;;;;4.93;1.20;;;7.00;99.90;;;;;;5055451;28;20049;-51
2023/01/09 00:51:19;;;;;;;6.32;1.08;;;7.00;99.90;;;;;;5055543;28;20049;-51
2023/01/09 00:53:46;;;;;;;7.05;1.45;;;7.00;99.90;;;;;;5055513;28;20103;-55
2023/01/09 00:56:13;;;;;;;6.45;1.00;;;7.00;99.90;;;;;;5055015;28;20087;-50
2023/01/09 00:58:39;;;;;;;4.50;1.20;;;7.00;99.90;;;;;;5055261;28;20377;-52
2023/01/09 01:01:06;;;;;;;7.88;1.25;;;7.10;99.90;;;;;;5055373;28;20102;-50
2023/01/09 01:03:33;;;;;;;5.05;1.17;;;7.00;99.90;;;;;;5055104;28;20434;-56
2023/01/09 01:08:45;;;;;;;5.00;1.20;;;7.00;99.90;;;;;;5054972;28;20091;-55
2023/01/09 01:11:12;;;;;;;6.18;1.20;;;7.10;99.90;;;;;;5055223;28;20037;-54
2023/01/09 01:13:39;;;;;;;9.05;1.58;;;7.00;99.90;;;;;;5055072;28;20045;-51
2023/01/09 01:16:05;;;;;;;6.35;1.10;;;7.00;99.90;;;;;;5055284;28;20041;-53
2023/01/09 01:18:32;;;;;;;6.60;1.00;;;7.00;99.90;;;;;;5054677;28;20494;-49
2023/01/09 01:20:59;;;;;;;6.55;1.33;;;7.00;99.90;;;;;;5055254;28;20044;-55
2023/01/09 01:23:26;;;;;;;5.93;1.20;;;7.00;99.90;;;;;;5054989;28;20048;-53
2023/01/09 01:25:52;;;;;;;5.80;1.25;;;7.00;99.90;;;;;;5054629;28;20407;-51
2023/01/09 01:28:19;;;;;;;8.95;1.33;;;7.00;99.90;;;;;;5054826;28;20102;-52
2023/01/09 01:30:46;;;;;;;7.60;1.80;;;7.00;99.90;;;;;;5054578;28;20102;-51
2023/01/09 01:33:13;;;;;;;7.15;1.27;;;7.00;99.90;;;;;;5055018;28;20033;-51
2023/01/09 01:35:39;;;;;;;7.47;1.17;;;7.00;99.90;;;;;;5054550;28;20068;-50
2023/01/09 01:38:06;;;;;;;7.72;1.50;;;7.00;99.90;;;;;;5054940;28;20049;-53
2023/01/09 01:40:33;;;;;;;6.90;1.10;;;7.10;99.90;;;;;;5054981;28;20507;-54
2023/01/09 01:43:00;;;;;;;8.68;1.08;;;7.00;99.90;;;;;;5054824;28;20073;-51
2023/01/09 01:45:27;;;;;;;5.32;1.10;;;7.00;99.90;;;;;;5054211;28;20124;-53
2023/01/09 01:47:53;;;;;;;4.32;1.00;;;7.00;99.90;;;;;;5054841;28;20041;-50
2023/01/09 01:50:21;;;;;;;4.57;1.00;;;7.00;99.90;;;;;;5054747;28;20052;-52
2023/01/09 01:52:47;;;;;;;8.05;1.40;;;7.10;99.90;;;;;;5054457;28;20087;-53
2023/01/09 01:55:15;;;;;;;7.68;1.40;;;7.00;99.90;;;;;;5054302;28;20098;-50
2023/01/09 01:57:42;;;;;;;6.03;1.10;;;7.10;99.90;;;;;;5053013;28;20040;-51
2023/01/09 02:00:08;;;;;;;6.20;1.20;;;7.10;99.90;;;;;;5052917;28;20049;-52
2023/01/09 02:02:35;;;;;;;9.50;2.05;;;7.10;99.90;;;;;;5054844;28;20064;-55
2023/01/09 02:05:03;;;;;;;5.93;1.10;;;7.10;99.90;;;;;;5054399;28;20036;-55
2023/01/09 02:07:29;;;;;;;4.85;1.10;;;7.10;99.90;;;;;;5054103;28;20094;-50
2023/01/09 02:09:56;;;;;;;4.43;1.10;;;7.10;99.90;;;;;;5053902;28;20090;-51
2023/01/09 02:12:23;;;;;;;3.92;1.25;;;7.10;99.90;;;;;;5054006;28;20464;-54
2023/01/09 02:14:49;;;;;;;4.70;1.23;;;7.10;99.90;;;;;;5052926;28;20057;-48
2023/01/09 02:17:16;;;;;;;4.25;1.30;;;7.10;99.90;;;;;;5053973;28;20041;-50
2023/01/09 02:19:43;;;;;;;5.45;1.48;;;7.00;99.90;;;;;;5053960;28;20057;-52
2023/01/09 02:22:10;;;;;;;9.60;1.25;;;7.00;99.90;;;;;;5054109;28;20452;-52
2023/01/09 02:24:38;;;;;;;4.03;0.88;;;7.10;99.90;;;;;;5053786;28;20098;-51
2023/01/09 02:27:05;;;;;;;7.05;0.98;;;7.10;99.90;;;;;;5054158;28;20461;-51
2023/01/09 02:29:31;;;;;;;5.97;1.25;;;7.00;99.90;;;;;;5054107;28;20049;-50
2023/01/09 02:31:58;;;;;;;4.65;0.98;;;7.10;99.90;;;;;;5053950;28;20457;-54
2023/01/09 02:34:25;;;;;;;6.40;1.35;;;7.10;99.90;;;;;;5053677;28;20041;-54
2023/01/09 02:36:51;;;;;;;6.70;1.27;;;7.00;99.90;;;;;;5053593;28;20037;-51
2023/01/09 02:39:18;;;;;;;4.05;0.90;;;7.00;99.90;;;;;;5053744;28;20041;-52
2023/01/09 02:41:45;;;;;;;4.18;1.05;;;6.90;99.90;;;;;;5054258;28;20037;-51
2023/01/09 02:44:12;;;;;;;7.63;1.42;;;6.90;99.90;;;;;;5053625;28;20044;-50
2023/01/09 02:46:38;;;;;;;5.43;1.60;;;6.90;99.90;;;;;;5052429;28;20538;-51
2023/01/09 02:49:05;;;;;;;3.40;1.00;;;6.80;99.90;;;;;;5053573;28;20044;-53
2023/01/09 02:51:32;;;;;;;6.18;1.20;;;6.80;99.90;;;;;;5053855;28;20071;-54
2023/01/09 02:53:58;;;;;;;7.95;1.23;;;6.70;99.90;;;;;;5053528;28;20045;-57
2023/01/09 02:56:25;;;;;;;5.18;1.35;;;6.70;99.90;;;;;;5052037;28;20044;-52
2023/01/09 02:58:52;;;;;;;7.43;1.55;;;6.60;99.90;;;;;;5053553;28;20114;-53
2023/01/09 03:01:19;;;;;;;5.75;1.52;;;6.60;99.90;;;;;;5053692;28;20037;-51
2023/01/09 03:03:46;;;;;;;4.95;1.23;;;6.50;99.90;;;;;;5053748;28;20041;-51
2023/01/09 03:06:12;;;;;;;6.07;1.30;;;6.50;99.90;;;;;;5053640;28;20392;-52
2023/01/09 03:08:39;;;;;;;4.20;1.35;;;6.40;99.90;;;;;;5053518;28;20103;-52
2023/01/09 03:11:06;;;;;;;5.78;1.52;;;6.40;99.90;;;;;;5056522;28;20183;-53
2023/01/09 03:13:33;;;;;;;5.40;1.27;;;6.40;99.90;;;;;;5057561;28;20041;-53
2023/01/09 03:16:00;;;;;;;5.72;1.02;;;6.40;99.90;;;;;;5057401;28;20033;-50
2023/01/09 03:18:26;;;;;;;6.28;1.70;;;6.30;99.90;;;;;;5057107;28;20050;-50
2023/01/09 03:20:53;;;;;;;5.55;1.35;;;6.30;99.90;;;;;;5057271;28;20079;-50
2023/01/09 03:23:20;;;;;;;6.28;1.38;;;6.30;99.90;;;;;;5057337;28;20040;-55
2023/01/09 03:25:47;;;;;;;4.68;0.88;;;6.20;99.90;;;;;;5056906;28;20037;-53
2023/01/09 03:28:13;;;;;;;3.25;1.00;;;6.20;99.90;;;;;;5057866;28;20045;-53
2023/01/09 03:30:40;;;;;;;5.00;1.05;;;6.10;99.90;;;;;;5057115;28;20045;-51
2023/01/09 03:33:07;;;;;;;5.00;1.00;;;6.10;99.90;;;;;;5056215;28;20247;-52
2023/01/09 03:35:33;;;;;;;6.05;0.93;;;6.10;99.90;;;;;;5057023;28;20087;-53
2023/01/09 03:38:00;;;;;;;8.02;1.10;;;6.10;99.90;;;;;;5057311;28;20041;-49
2023/01/09 03:40:27;;;;;;;4.07;0.93;;;6.00;99.90;;;;;;5057245;28;20045;-53
2023/01/09 03:42:54;;;;;;;8.07;1.50;;;6.00;99.90;;;;;;5056395;28;20045;-54
2023/01/09 03:45:20;;;;;;;10.52;1.27;;;6.00;99.90;;;;;;5057210;28;20073;-51
2023/01/09 03:47:47;;;;;;;9.05;1.40;;;6.00;99.90;;;;;;5057126;28;20057;-54
2023/01/09 03:50:14;;;;;;;7.53;1.20;;;5.90;99.90;;;;;;5056711;28;20147;-52
2023/01/09 03:52:41;;;;;;;7.95;1.83;;;5.90;99.90;;;;;;5056807;28;20041;-48
2023/01/09 03:55:07;;;;;;;9.65;1.48;;;5.90;99.90;;;;;;5056490;28;20041;-51
2023/01/09 03:57:34;;;;;;;10.30;1.85;;;5.90;99.90;;;;;;5056697;28;20384;-53
2023/01/09 04:00:01;;;;;;;10.68;1.52;;;5.90;99.90;;;;;;5056869;28;20041;-47
2023/01/09 04:02:37;;;;;;;10.15;1.63;;;5.90;99.90;;;;;;5056622;28;20051;-50
2023/01/09 04:05:04;;;;;;;8.57;1.67;;;5.90;99.90;;;;;;5056587;28;20088;-53
2023/01/09 04:07:31;;;;;;;10.02;1.58;;;5.90;99.90;;;;;;5056251;28;20037;-53
2023/01/09 04:09:57;;;;;;;9.18;1.80;;;5.80;99.90;;;;;;5056391;28;20052;-52
2023/01/09 04:12:24;;;;;;;8.63;1.70;;;5.90;99.90;;;;;;5056427;28;20049;-52
2023/01/09 04:14:51;;;;;;;8.38;1.55;;;5.80;99.90;;;;;;5056898;28;20033;-52
2023/01/09 04:17:17;;;;;;;12.07;2.10;;;5.80;99.90;;;;;;5055997;28;20451;-51
2023/01/09 04:19:44;;;;;;;10.50;2.20;;;5.80;99.90;;;;;;5056224;28;20073;-47
2023/01/09 04:22:11;;;;;;;11.75;2.08;;;5.80;99.90;;;;;;5055837;28;20125;-49
2023/01/09 04:24:38;;;;;;;9.98;2.20;;;5.80;99.90;;;;;;5056149;28;20071;-51
2023/01/09 04:27:04;;;;;;;13.57;2.38;;;5.70;99.90;;;;;;5056285;28;20102;-53
2023/01/09 04:29:31;;;;;;;8.02;1.80;;;5.80;99.90;;;;;;5054605;28;20388;-51
2023/01/09 04:31:58;;;;;;;8.07;2.10;;;5.80;99.90;;;;;;5056290;28;20056;-54
2023/01/09 04:34:24;;;;;;;11.63;1.75;;;5.70;99.90;;;;;;5056025;28;20079;-52
2023/01/09 04:36:52;;;;;;;9.80;1.70;;;5.80;99.90;;;;;;5055989;28;20049;-51
2023/01/09 04:39:19;;;;;;;15.63;2.00;;;5.70;99.90;;;;;;5055399;28;20098;-51
2023/01/09 04:41:48;;;;;;;7.90;1.77;;;5.70;99.90;;;;;;5056073;28;20469;-48
2023/01/09 04:44:15;;;;;;;9.85;1.83;;;5.70;99.90;;;;;;5055520;28;20068;-51
2023/01/09 04:46:41;;;;;;;10.90;1.83;;;5.70;99.90;;;;;;5055438;28;20368;-52
2023/01/09 04:49:08;;;;;;;13.38;1.92;;;5.70;99.90;;;;;;5055775;28;20450;-55
2023/01/09 04:51:35;;;;;;;14.15;2.60;;;5.80;99.90;;;;;;5055399;28;20049;-53
2023/01/09 04:54:02;;;;;;;10.27;1.70;;;5.70;99.90;;;;;;5055594;28;20037;-51
2023/01/09 04:56:28;;;;;;;8.88;1.70;;;5.80;99.90;;;;;;5055555;28;20045;-51
2023/01/09 04:58:55;;;;;;;11.18;2.13;;;5.80;99.90;;;;;;5055704;28;20045;-51
2023/01/09 05:01:22;;;;;;;10.20;2.50;;;5.80;99.90;;;;;;5055812;28;20460;-50
2023/01/09 05:03:48;;;;;;;12.85;2.08;;;5.80;99.90;;;;;;5055032;28;20049;-52
2023/01/09 05:06:15;;;;;;;11.80;2.10;;;5.80;99.90;;;;;;5055407;28;20045;-50
2023/01/09 05:08:42;;;;;;;11.60;1.90;;;5.70;99.90;;;;;;5055255;28;20430;-51
2023/01/09 05:11:09;;;;;;;12.43;1.92;;;5.70;99.90;;;;;;5055479;28;20033;-51
2023/01/09 05:13:35;;;;;;;8.52;1.90;;;5.70;99.90;;;;;;5055417;28;20037;-50
2023/01/09 05:16:02;;;;;;;8.95;1.85;;;5.70;99.90;;;;;;5055009;28;20041;-52
2023/01/09 05:18:29;;;;;;;13.88;2.15;;;5.70;99.90;;;;;;5054853;28;20151;-51
2023/01/09 05:20:55;;;;;;;15.77;2.13;;;5.70;99.90;;;;;;5055278;28;20041;-51
2023/01/09 05:23:22;;;;;;;14.18;2.40;;;5.70;99.90;;;;;;5055392;28;20472;-50
2023/01/09 05:25:49;;;;;;;15.60;1.83;;;5.70;99.90;;;;;;5054980;28;20053;-52
2023/01/09 05:28:16;;;;;;;13.82;2.40;;;5.70;99.90;;;;;;5054933;28;20162;-52
2023/01/09 05:30:42;;;;;;;10.20;1.85;;;5.70;99.90;;;;;;5054992;28;20040;-55
2023/01/09 05:33:09;;;;;;;13.18;2.03;;;5.70;99.90;;;;;;5054177;28;20102;-49
2023/01/09 05:35:36;;;;;;;14.32;2.10;;;5.70;99.90;;;;;;5054872;28;20099;-53
2023/01/09 05:38:03;;;;;;;14.18;2.35;;;5.70;99.90;;;;;;5053155;28;20041;-53
2023/01/09 05:40:29;;;;;;;8.48;1.58;;;5.60;99.90;;;;;;5054892;28;20045;-50
2023/01/09 05:43:05;;;;;;;;;;;5.70;99.90;;;;;;5055180;28;20099;-53
2023/01/09 05:45:32;;;;;;;10.88;1.77;;;5.70;99.90;;;;;;5054754;28;19927;-53
2023/01/09 05:47:58;;;;;;;11.10;2.67;;;5.60;99.90;;;;;;5054919;28;20124;-50
2023/01/09 05:50:25;;;;;;;13.27;2.28;;;5.60;99.90;;;;;;5054511;28;20119;-55
2023/01/09 05:52:52;;;;;;;14.73;2.75;;;5.60;99.90;;;;;;5054892;28;20120;-49
2023/01/09 05:55:19;;;;;;;14.68;2.47;;;5.60;99.90;;;;;;5054256;28;20423;-51
2023/01/09 05:57:45;;;;;;;16.23;2.75;;;5.60;99.90;;;;;;5054214;28;20475;-51
2023/01/09 06:00:12;;;;;;;13.23;2.25;;;5.60;99.90;;;;;;5054500;28;20068;-52
2023/01/09 06:02:39;;;;;;;14.23;2.22;;;5.60;99.90;;;;;;5054189;28;20097;-51
2023/01/09 06:05:06;;;;;;;13.40;2.42;;;5.60;99.90;;;;;;5054099;28;20041;-50
2023/01/09 06:07:35;;;;;;;10.38;1.92;;;5.60;99.90;;;;;;5053912;28;20087;-52
2023/01/09 06:10:02;;;;;;;16.80;2.53;;;5.60;99.90;;;;;;5054032;28;20143;-51
2023/01/09 06:12:29;;;;;;;16.83;2.53;;;5.60;99.90;;;;;;5054019;28;20099;-49
2023/01/09 06:14:55;;;;;;;13.30;2.38;;;5.60;99.90;;;;;;5052949;28;20037;-51
2023/01/09 06:17:22;;;;;;;15.52;2.40;;;5.60;99.90;;;;;;5054147;28;20045;-49
2023/01/09 06:19:50;;;;;;;9.75;1.85;;;5.60;99.90;;;;;;5053623;28;20060;-51
2023/01/09 06:22:17;;;;;;;11.95;2.47;;;5.60;99.90;;;;;;5053118;28;20045;-52
2023/01/09 06:24:43;;;;;;;13.85;2.35;;;5.60;99.90;;;;;;5052607;28;20045;-49
2023/01/09 06:27:11;;;;;;;11.95;2.13;;;5.60;99.90;;;;;;5052816;28;20041;-50
2023/01/09 06:29:38;;;;;;;12.55;1.80;;;5.60;99.90;;;;;;5054107;28;20033;-46
2023/01/09 06:32:05;;;;;;;15.65;2.35;;;5.60;99.90;;;;;;5054047;28;20044;-48
2023/01/09 06:34:32;;;;;;;14.98;2.22;;;5.60;99.90;;;;;;5053650;28;20121;-49
2023/01/09 06:36:58;;;;;;;12.05;2.00;;;5.60;99.90;;;;;;5053589;28;20040;-47
2023/01/09 06:39:25;;;;;;;13.55;2.20;;;5.60;99.90;;;;;;5052937;28;20052;-49
2023/01/09 06:41:52;;;;;;;13.75;2.33;;;5.60;99.90;;;;;;5054000;28;20045;-46
2023/01/09 06:44:18;;;;;;;14.57;2.88;;;5.60;99.90;;;;;;5053499;28;20099;-51
2023/01/09 06:46:45;;;;;;;10.55;1.88;;;5.60;99.90;;;;;;5053599;28;20106;-48
2023/01/09 06:49:12;;;;;;;13.43;1.90;;;5.60;99.90;;;;;;5053152;28;20045;-51
2023/01/09 06:51:39;;;;;;;17.23;2.53;;;5.60;99.90;;;;;;5053751;28;20041;-48
2023/01/09 06:54:05;;;;;;;11.20;2.33;;;5.60;99.90;;;;;;5053293;28;20102;-52
2023/01/09 06:56:32;;;;;;;12.73;2.05;;;5.60;99.90;;;;;;5053336;28;20045;-50
2023/01/09 06:59:00;;;;;;;13.65;2.35;;;5.60;99.90;;;;;;5053246;28;20036;-48
2023/01/09 07:01:26;;;;;;;11.73;1.98;;;5.50;99.90;;;;;;5053761;28;20460;-50
2023/01/09 07:03:53;;;;;;;13.18;2.45;;;5.50;99.90;;;;;;5053450;28;20392;-49
2023/01/09 07:06:20;;;;;;;15.05;2.22;;;5.60;99.90;;;;;;5053208;28;20408;-49
2023/01/09 07:08:47;;;;;;;15.05;2.38;;;5.60;99.90;;;;;;5052995;28;20055;-51
2023/01/09 07:11:13;;;;;;;13.68;2.72;;;5.60;99.90;;;;;;5053472;28;20446;-52
2023/01/09 07:13:41;;;;;;;15.02;2.55;;;5.60;99.90;;;;;;5053560;28;20041;-52
2023/01/09 07:16:08;;;;;;;17.48;2.63;;;5.60;99.90;;;;;;5053282;28;20111;-51
2023/01/09 07:18:35;;;;;;;12.10;1.95;;;5.60;99.90;;;;;;5053138;28;20048;-54
2023/01/09 07:21:02;;;;;;;14.65;2.80;;;5.60;99.90;;;;;;5053288;28;20041;-52
2023/01/09 07:23:29;;;;;;;14.23;3.03;;;5.60;99.90;;;;;;5053235;28;20110;-53
2023/01/09 07:25:57;;;;;;;10.23;1.92;;;5.60;99.90;;;;;;5053286;28;20052;-49
2023/01/09 07:28:23;;;;;;;16.63;2.75;;;5.60;99.90;;;;;;5053110;28;20106;-50
2023/01/09 07:30:50;;;;;;;12.07;2.13;;;5.50;99.90;;;;;;5053416;28;20079;-50
2023/01/09 07:33:17;;;;;;;10.35;2.42;;;5.50;99.90;;;;;;5053667;28;20469;-50
2023/01/09 07:35:44;;;;;;;9.38;2.17;;;5.50;99.90;;;;;;5052784;28;20038;-52
2023/01/09 07:38:10;;;;;;;11.18;2.25;;;5.50;99.90;;;;;;5053359;28;20110;-56
2023/01/09 07:40:38;;;;;;;12.65;2.33;;;5.50;99.90;;;;;;5053101;28;20094;-54
2023/01/09 07:43:04;;;;;;;12.90;2.20;;;5.50;99.90;;;;;;5053159;28;20045;-51
2023/01/09 07:45:31;;;;;;;14.93;2.13;;;5.50;99.90;;;;;;5053018;28;20044;-51
2023/01/09 07:47:58;;;;;;;13.88;2.50;;;5.50;99.90;;;;;;5052947;28;20041;-56
2023/01/09 07:50:25;;;;;;;10.43;1.98;;;5.50;99.90;;;;;;5053366;28;20045;-50
2023/01/09 07:52:51;;;;;;;12.38;2.30;;;5.50;99.90;;;;;;5053043;28;20049;-52
2023/01/09 07:55:18;;;;;;;12.98;2.22;;;5.50;99.90;;;;;;5053159;28;20588;-50
2023/01/09 07:57:45;;;;;;;12.05;2.35;;;5.50;99.90;;;;;;5054881;28;20053;-56
2023/01/09 08:00:12;;;;;;;15.48;2.58;;;5.50;99.90;;;;;;5041737;28;20045;-50
2023/01/09 08:02:39;;;;;;;14.48;2.60;;;5.50;99.90;;;;;;5052264;28;20044;-55
2023/01/09 08:05:05;;;;;;;17.58;3.17;;;5.50;99.90;;;;;;5055290;28;20044;-52
2023/01/09 08:07:32;;;;;;;13.25;2.22;;;5.50;99.90;;;;;;5055583;28;20041;-51
2023/01/09 08:09:59;;;;;;;15.80;2.05;;;5.50;99.90;;;;;;5056149;28;20450;-49
2023/01/09 08:12:26;;;;;;;18.27;2.25;;;5.50;99.90;;;;;;5055936;28;20073;-50
2023/01/09 08:14:52;;;;;;;11.40;2.20;;;5.50;99.90;;;;;;5055782;28;20048;-50
2023/01/09 08:17:19;;;;;;;17.48;2.72;;;5.50;99.90;;;;;;5055907;28;20041;-50
2023/01/09 08:19:46;;;;;;;11.57;2.15;;;5.40;99.90;;;;;;5055592;28;20049;-51
2023/01/09 08:22:13;;;;;;;18.65;2.45;;;5.50;99.90;;;;;;5055705;28;20040;-51
2023/01/09 08:24:39;;;;;;;20.33;3.28;;;5.50;99.90;;;;;;5055733;28;20048;-54
2023/01/09 08:27:06;;;;;;;12.52;2.17;;;5.50;99.90;;;;;;5055455;28;20140;-49
2023/01/09 08:29:33;;;;;;;9.40;2.13;;;5.50;99.90;;;;;;5055759;28;20461;-52
2023/01/09 08:32:00;;;;;;;19.00;2.80;;;5.50;99.90;;;;;;5055484;28;20045;-55
2023/01/09 08:34:27;;;;;;;15.43;2.50;;;5.50;99.90;;;;;;5055598;28;20065;-49
2023/01/09 08:36:53;;;;;;;17.67;2.83;;;5.50;99.90;;;;;;5055227;28;20041;-53
2023/01/09 08:39:20;;;;;;;13.90;2.22;;;5.50;99.90;;;;;;5055620;28;20045;-54
2023/01/09 08:47:18;;;;;;;18.77;2.63;;;5.50;99.90;;;;;;5055091;28;20045;-49
2023/01/09 08:49:45;;;;;;;12.73;2.33;;;5.50;99.90;;;;;;5055290;28;20036;-54
2023/01/09 08:52:12;;;;;;;19.38;3.05;;;5.50;99.90;;;;;;5041735;28;20100;-52
2023/01/09 08:54:39;;;;;;;12.45;2.58;;;5.50;99.90;;;;;;5054387;28;20053;-51
2023/01/09 08:57:06;;;;;;;10.30;2.10;;;5.50;99.90;;;;;;5054404;28;20044;-52
2023/01/09 08:59:32;;;;;;;16.88;2.28;;;5.50;99.90;;;;;;5054343;28;20041;-52
2023/01/09 09:01:59;;;;;;;12.98;2.58;;;5.60;99.90;;;;;;5054874;28;20041;-52
2023/01/09 09:04:26;;;;;;;11.13;1.95;;;5.60;99.90;;;;;;5054732;28;20037;-50
2023/01/09 09:06:53;;;;;;;11.25;2.17;;;5.60;99.90;;;;;;5053186;28;20041;-53
2023/01/09 09:09:19;;;;;;;18.25;2.47;;;5.70;99.90;;;;;;5053886;28;20043;-49
2023/01/09 09:11:46;;;;;;;13.93;2.25;;;5.80;99.90;;;;;;5054168;28;20056;-53
2023/01/09 09:16:58;;;;;;;14.43;2.72;;;5.90;99.90;;;;;;5054034;28;20037;-52
2023/01/09 09:19:25;;;;;;;10.88;2.10;;;6.00;99.90;;;;;;5054206;28;20045;-52
2023/01/09 09:21:52;;;;;;;14.45;2.20;;;6.00;99.90;;;;;;5054153;28;20049;-53
2023/01/09 09:24:18;;;;;;;10.20;1.73;;;6.10;99.90;;;;;;5053327;28;20453;-51
2023/01/09 09:26:45;;;;;;;9.15;2.05;;;6.20;99.90;;;;;;5053137;28;20044;-55
2023/01/09 09:29:12;;;;;;;9.93;2.00;;;6.20;99.90;;;;;;5053714;28;20526;-52
2023/01/09 09:31:38;;;;;;;15.75;3.17;;;6.20;99.90;;;;;;5052649;28;20084;-54
2023/01/09 09:34:05;;;;;;;10.80;2.20;;;6.30;99.90;;;;;;5053350;28;20115;-52
2023/01/09 09:36:32;;;;;;;13.10;2.72;;;6.30;99.90;;;;;;5053478;28;20102;-53
2023/01/09 09:38:59;;;;;;;11.27;2.28;;;6.30;99.90;;;;;;5054733;28;20049;-52
2023/01/09 09:46:56;;;;;;;8.30;1.70;;;6.40;99.90;;;;;;5052881;28;20041;-51
2023/01/09 09:49:23;;;;;;;8.43;1.60;;;6.40;99.90;;;;;;5052777;28;20037;-56
2023/01/09 09:51:50;;;;;;;10.93;2.47;;;6.50;99.90;;;;;;5053083;28;20609;-51
2023/01/09 09:54:16;;;;;;;6.40;1.70;;;6.60;99.90;;;;;;5053121;28;20395;-48
2023/01/09 09:56:43;;;;;;;6.63;1.55;;;6.60;99.90;;;;;;5054318;28;20041;-52
2023/01/09 09:59:10;;;;;;;10.75;1.80;;;6.70;99.90;;;;;;5054403;28;20098;-48
2023/01/09 10:01:37;;;;;;;9.75;2.08;;;6.80;99.90;;;;;;5054546;28;20535;-54
2023/01/09 10:04:03;;;;;;;8.77;2.03;;;6.80;99.90;;;;;;5054157;28;20380;-53
2023/01/09 10:06:30;;;;;;;7.15;1.80;;;6.80;99.90;;;;;;5054196;28;20033;-53
2023/01/09 10:08:57;;;;;;;8.48;1.92;;;6.90;99.90;;;;;;5054149;28;20511;-54
2023/01/09 10:11:24;;;;;;;9.13;1.80;;;6.90;99.90;;;;;;5052809;28;20091;-51
2023/01/09 10:14:06;;;;;;;12.00;1.90;;;6.90;99.90;;;;;;5054092;28;20052;-53
2023/01/09 10:16:44;;;;;;;9.57;1.70;;;7.00;99.90;;;;;;5053864;28;20095;-55
2023/01/09 10:19:11;;;;;;;9.05;1.92;;;7.00;99.90;;;;;;5053597;28;20049;-51
2023/01/09 10:21:38;;;;;;;6.78;1.38;;;7.10;99.90;;;;;;5054104;28;20469;-51
2023/01/09 10:24:05;;;;;;;9.57;1.70;;;7.10;99.90;;;;;;5053973;28;20147;-51
2023/01/09 10:26:31;;;;;;;7.90;1.65;;;7.10;99.90;;;;;;5053633;28;20056;-54
2023/01/09 10:28:58;;;;;;;6.88;2.05;;;7.20;99.90;;;;;;5053515;28;20225;-52
2023/01/09 10:31:25;;;;;;;9.10;1.80;;;7.20;99.90;;;;;;5053858;28;20041;-49
2023/01/09 10:33:52;;;;;;;4.90;1.55;;;7.20;99.90;;;;;;5052791;28;20041;-50
2023/01/09 10:36:19;;;;;;;8.52;2.03;;;7.20;99.90;;;;;;5053241;28;20045;-50
2023/01/09 10:38:46;;;;;;;11.40;2.33;;;7.30;99.90;;;;;;5053747;28;20037;-51
2023/01/09 10:41:13;;;;;;;12.20;2.55;;;7.30;99.90;;;;;;5052107;28;20048;-49
2023/01/09 10:43:39;;;;;;;7.20;1.70;;;7.40;99.90;;;;;;5053522;28;20045;-50
2023/01/09 10:46:06;;;;;;;8.85;2.08;;;7.40;99.90;;;;;;5053712;28;20467;-50
2023/01/09 10:48:36;;;;;;;8.93;1.77;;;7.40;99.90;;;;;;5053581;28;20041;-50
2023/01/09 10:51:03;;;;;;;6.55;1.60;;;7.50;99.90;;;;;;5053468;28;20052;-48
2023/01/09 10:53:30;;;;;;;8.77;2.28;;;7.50;99.90;;;;;;5053486;28;20095;-51
2023/01/09 10:55:56;;;;;;;11.98;1.52;;;7.50;99.90;;;;;;5053501;28;20120;-51
2023/01/09 10:58:23;;;;;;;6.78;1.80;;;7.60;99.90;;;;;;5053368;28;20468;-54
2023/01/09 11:00:50;;;;;;;8.18;1.48;;;7.60;99.90;;;;;;5052123;28;20073;-54
2023/01/09 11:03:17;;;;;;;6.57;2.10;;;7.70;99.90;;;;;;5053193;28;20041;-48
2023/01/09 11:05:43;;;;;;;9.88;1.40;;;7.70;99.90;;;;;;5052195;28;20079;-51
2023/01/09 11:08:10;;;;;;;7.07;1.35;;;7.70;99.90;;;;;;5052080;28;20106;-50
2023/01/09 11:10:37;;;;;;;3.15;1.05;;;7.70;99.90;;;;;;5052348;28;20048;-47
2023/01/09 11:13:04;;;;;;;6.00;1.20;;;7.70;99.90;;;;;;5053432;28;20051;-48
2023/01/09 11:15:31;;;;;;;4.15;1.35;;;7.80;99.90;;;;;;5052843;28;20032;-47
2023/01/09 11:17:58;;;;;;;7.18;1.20;;;7.80;99.90;;;;;;5053394;28;20099;-46
2023/01/09 11:20:25;;;;;;;7.93;1.60;;;7.80;99.90;;;;;;5053386;28;20103;-47
2023/01/09 11:22:51;;;;;;;7.10;1.08;;;7.80;99.90;;;;;;5053042;28;20403;-48
2023/01/09 11:25:18;;;;;;;5.82;1.05;;;7.70;99.90;;;;;;5052946;28;20388;-54
2023/01/09 11:27:45;;;;;;;7.53;1.30;;;7.70;99.90;;;;;;5052757;28;20124;-50
2023/01/09 11:30:11;;;;;;;4.38;1.25;;;7.70;99.90;;;;;;5052847;28;20033;-55
2023/01/09 11:32:38;;;;;;;7.45;1.20;;;7.70;99.90;;;;;;5056271;28;20443;-54
2023/01/09 11:35:05;;;;;;;7.93;1.30;;;7.70;99.90;;;;;;5056891;28;20492;-51
2023/01/09 11:37:32;;;;;;;5.78;1.17;;;7.70;99.90;;;;;;5056746;28;20041;-52
2023/01/09 11:39:58;;;;;;;4.20;1.05;;;7.70;99.90;;;;;;5056956;28;20048;-52
2023/01/09 11:45:11;;;;;;;8.95;2.08;;;7.90;99.90;;;;;;5056895;28;20045;-54
2023/01/09 11:47:37;;;;;;;4.25;1.00;;;7.90;99.90;;;;;;5056865;28;20095;-51
2023/01/09 11:50:04;;;;;;;6.05;1.27;;;8.00;99.90;;;;;;5055673;28;20039;-51
2023/01/09 11:52:31;;;;;;;4.40;1.02;;;8.00;99.90;;;;;;5056745;28;20041;-56
2023/01/09 11:54:58;;;;;;;6.47;1.10;;;8.00;99.90;;;;;;5056723;28;20048;-55
2023/01/09 11:57:25;;;;;;;5.65;0.98;;;8.00;99.90;;;;;;5056442;28;20041;-56
2023/01/09 11:59:54;;;;;;;6.88;1.20;;;8.00;99.90;;;;;;5056322;28;20037;-55
2023/01/09 12:02:21;;;;;;;5.70;1.25;;;8.10;99.90;;;;;;5056556;28;20124;-56
2023/01/09 12:04:47;;;;;;;12.90;1.95;;;8.10;99.90;;;;;;5055303;28;20041;-54
2023/01/09 12:07:14;;;;;;;8.25;1.50;;;8.20;99.90;;;;;;5056516;28;20106;-56
2023/01/09 12:09:41;;;;;;;6.57;1.60;;;8.30;99.90;;;;;;5056627;28;20041;-50
2023/01/09 12:12:08;;;;;;;5.80;1.20;;;8.30;99.90;;;;;;5056166;28;20484;-53
2023/01/09 12:14:34;;;;;;;5.45;1.50;;;8.30;99.90;;;;;;5056344;28;20461;-54
2023/01/09 12:17:01;;;;;;;4.78;1.20;;;8.30;99.90;;;;;;5056295;28;20037;-54
2023/01/09 12:19:28;;;;;;;5.97;1.48;;;8.30;99.90;;;;;;5056038;28;20056;-52
2023/01/09 12:21:55;;;;;;;5.70;1.27;;;8.30;99.90;;;;;;5056223;28;20041;-51
2023/01/09 12:24:21;;;;;;;6.45;1.20;;;8.30;99.90;;;;;;5055887;28;20033;-52
2023/01/09 12:26:48;;;;;;;5.85;1.20;;;8.40;99.90;;;;;;5055871;28;20132;-54
2023/01/09 12:29:15;;;;;;;7.70;1.25;;;8.40;99.90;;;;;;5056216;28;20041;-55
2023/01/09 12:31:41;;;;;;;6.15;1.20;;;8.50;99.90;;;;;;5055915;28;20044;-52
2023/01/09 12:34:10;;;;;;;7.85;1.55;;;8.50;99.90;;;;;;5056045;28;20045;-54
2023/01/09 12:36:37;;;;;;;5.28;1.20;;;8.50;99.90;;;;;;5054341;28;20448;-54
2023/01/09 12:39:04;;;;;;;4.13;1.15;;;8.50;99.90;;;;;;5055988;28;20048;-52
2023/01/09 12:41:30;;;;;;;5.60;1.20;;;8.50;99.90;;;;;;5054395;28;20048;-50
2023/01/09 12:43:57;;;;;;;7.68;1.55;;;8.60;99.90;;;;;;5055499;28;20045;-52
2023/01/09 12:46:25;;;;;;;6.45;1.70;;;8.60;99.90;;;;;;5055767;28;20094;-49
2023/01/09 12:48:52;;;;;;;5.22;1.65;;;8.60;99.90;;;;;;5055771;28;20051;-50
2023/01/09 12:51:19;;;;;;;5.07;1.20;;;8.70;99.90;;;;;;5055828;28;20041;-52
2023/01/09 12:53:45;;;;;;;6.22;1.52;;;8.70;99.90;;;;;;5055151;28;20095;-53
2023/01/09 12:56:13;;;;;;;5.85;1.15;;;8.70;99.90;;;;;;5054982;28;20115;-49
2023/01/09 12:58:40;;;;;;;8.85;1.48;;;8.70;99.90;;;;;;5055043;28;20041;-50
2023/01/09 13:01:07;;;;;;;5.55;1.25;;;8.70;99.90;;;;;;5055703;28;20040;-53
2023/01/09 13:03:34;;;;;;;8.00;1.85;;;8.70;99.90;;;;;;5054565;28;20044;-52
2023/01/09 13:06:01;;;;;;;6.90;1.38;;;8.80;99.90;;;;;;5055081;28;20045;-55
2023/01/09 13:08:27;;;;;;;4.97;1.20;;;8.80;99.90;;;;;;5055341;28;20094;-52
2023/01/09 13:10:54;;;;;;;7.78;1.75;;;8.80;99.90;;;;;;5055076;28;20060;-54